createdAt,value
2023-03-03T00:01:32.931Z,26.60
2023-03-03T00:04:00.434Z,25.88
2023-03-03T00:06:27.513Z,25.65
2023-03-03T00:08:54.401Z,27.30
2023-03-03T00:11:21.316Z,24.15
2023-03-03T00:13:51.669Z,23.35
2023-03-03T00:16:28.361Z,24.95
2023-03-03T00:18:56.261Z,21.10
2023-03-03T00:21:40.173Z,23.83
2023-03-03T00:24:34.898Z,23.60
2023-03-03T00:27:09.448Z,24.90
2023-03-03T00:29:40.395Z,20.58
2023-03-03T00:32:22.315Z,21.60
2023-03-03T00:34:50.820Z,21.02
2023-03-03T00:37:27.039Z,20.92
2023-03-03T00:39:58.840Z,20.83
2023-03-03T00:42:27.633Z,21.30
2023-03-03T00:45:01.234Z,21.40
2023-03-03T00:47:36.877Z,21.95
2023-03-03T00:50:06.794Z,21.70
2023-03-03T00:52:36.628Z,22.65
2023-03-03T00:55:04.556Z,20.08
2023-03-03T00:57:31.425Z,10.80
2023-03-03T00:59:59.345Z,23.25
2023-03-03T01:02:27.087Z,21.10
2023-03-03T01:04:57.416Z,23.90
2023-03-03T01:07:24.356Z,24.23
2023-03-03T01:09:51.273Z,22.73
2023-03-03T01:12:18.133Z,22.88
2023-03-03T01:14:45.464Z,24.15
2023-03-03T01:17:12.980Z,25.45
2023-03-03T01:19:39.858Z,25.73
2023-03-03T01:22:06.742Z,25.05
2023-03-03T01:24:33.688Z,20.95
2023-03-03T01:27:00.514Z,26.02
2023-03-03T01:29:27.405Z,26.05
2023-03-03T01:31:54.454Z,26.88
2023-03-03T01:34:22.072Z,28.60
2023-03-03T01:36:48.871Z,25.00
2023-03-03T01:39:15.664Z,28.40
2023-03-03T01:41:42.718Z,31.08
2023-03-03T01:44:15.519Z,29.05
2023-03-03T01:46:53.842Z,28.00
2023-03-03T01:49:34.541Z,29.33
2023-03-03T01:52:08.578Z,29.95
2023-03-03T01:54:44.154Z,25.77
2023-03-03T01:57:24.604Z,28.02
2023-03-03T01:59:53.490Z,27.80
2023-03-03T02:02:20.600Z,32.33
2023-03-03T02:04:47.761Z,34.45
2023-03-03T02:07:16.152Z,28.40
2023-03-03T02:10:05.008Z,31.27
2023-03-03T02:12:36.497Z,31.17
2023-03-03T02:15:24.743Z,31.25
2023-03-03T02:17:56.638Z,31.02
2023-03-03T02:20:39.783Z,34.13
2023-03-03T02:23:21.662Z,28.38
2023-03-03T02:26:00.382Z,37.97
2023-03-03T02:28:33.785Z,25.30
2023-03-03T02:31:08.451Z,31.90
2023-03-03T02:33:35.339Z,34.03
2023-03-03T02:36:02.178Z,36.42
2023-03-03T02:38:50.173Z,33.15
2023-03-03T02:41:36.718Z,43.35
2023-03-03T02:44:07.852Z,25.40
2023-03-03T02:46:40.741Z,41.00
2023-03-03T02:49:10.666Z,38.55
2023-03-03T02:51:38.405Z,34.22
2023-03-03T02:54:06.758Z,39.63
2023-03-03T02:56:35.143Z,32.30
2023-03-03T02:59:02.323Z,38.80
2023-03-03T03:01:37.137Z,32.17
2023-03-03T03:04:12.543Z,41.97
2023-03-03T03:06:43.620Z,41.90
2023-03-03T03:09:12.970Z,39.55
2023-03-03T03:11:40.382Z,34.78
2023-03-03T03:14:10.356Z,37.47
2023-03-03T03:16:38.347Z,38.88
2023-03-03T03:19:07.464Z,34.70
2023-03-03T03:21:36.309Z,41.47
2023-03-03T03:24:05.067Z,39.72
2023-03-03T03:26:33.447Z,35.55
2023-03-03T03:29:00.935Z,34.53
2023-03-03T03:31:28.421Z,32.33
2023-03-03T03:33:55.250Z,35.85
2023-03-03T03:36:23.684Z,37.03
2023-03-03T03:38:52.436Z,39.85
2023-03-03T03:41:19.348Z,34.77
2023-03-03T03:43:46.320Z,40.38
2023-03-03T03:46:14.559Z,37.07
2023-03-03T03:48:41.516Z,38.92
2023-03-03T03:51:12.619Z,40.55
2023-03-03T03:53:40.274Z,38.70
2023-03-03T03:56:07.866Z,34.97
2023-03-03T03:58:34.806Z,43.05
2023-03-03T04:01:07.800Z,38.80
2023-03-03T04:03:39.735Z,43.83
2023-03-03T04:06:10.762Z,40.85
2023-03-03T04:08:38.148Z,42.78
2023-03-03T04:11:05.197Z,42.42
2023-03-03T04:13:35.249Z,42.38
2023-03-03T04:16:05.092Z,41.42
2023-03-03T04:18:32.194Z,41.20
2023-03-03T04:20:59.581Z,40.03
2023-03-03T04:23:27.746Z,35.47
2023-03-03T04:25:55.088Z,37.13
2023-03-03T04:28:25.190Z,27.98
2023-03-03T04:30:52.716Z,37.05
2023-03-03T04:33:21.545Z,37.78
2023-03-03T04:35:49.788Z,40.70
2023-03-03T04:38:17.303Z,34.83
2023-03-03T04:40:46.180Z,34.83
2023-03-03T04:43:13.670Z,37.58
2023-03-03T04:45:40.690Z,41.25
2023-03-03T04:48:08.620Z,39.08
2023-03-03T04:50:36.279Z,41.75
2023-03-03T04:53:04.489Z,38.53
2023-03-03T04:55:31.657Z,43.55
2023-03-03T04:57:58.504Z,39.10
2023-03-03T05:00:25.655Z,35.05
2023-03-03T05:02:52.758Z,42.08
2023-03-03T05:05:19.835Z,50.15
2023-03-03T05:07:46.576Z,43.90
2023-03-03T05:10:13.697Z,50.90
2023-03-03T05:12:40.829Z,35.75
2023-03-03T05:15:08.069Z,42.22
2023-03-03T05:17:34.902Z,48.70
2023-03-03T05:20:01.879Z,42.33
2023-03-03T05:22:28.630Z,44.63
2023-03-03T05:24:55.625Z,17.70
2023-03-03T05:27:22.401Z,45.25
2023-03-03T05:29:49.286Z,37.55
2023-03-03T05:32:16.360Z,41.33
2023-03-03T05:34:43.237Z,38.70
2023-03-03T05:37:10.133Z,21.10
2023-03-03T05:39:37.078Z,42.22
2023-03-03T05:42:04.437Z,37.92
2023-03-03T05:44:31.361Z,41.88
2023-03-03T05:46:59.211Z,47.57
2023-03-03T05:49:26.779Z,30.45
2023-03-03T05:51:53.724Z,49.67
2023-03-03T05:54:20.670Z,43.47
2023-03-03T05:56:47.472Z,46.95
2023-03-03T05:59:14.280Z,48.63
2023-03-03T06:01:41.457Z,42.25
2023-03-03T06:04:08.544Z,38.03
2023-03-03T06:06:35.467Z,40.25
2023-03-03T06:09:02.378Z,49.40
2023-03-03T06:11:29.209Z,27.60
2023-03-03T06:13:56.060Z,48.78
2023-03-03T06:16:23.116Z,49.92
2023-03-03T06:18:50.089Z,51.37
2023-03-03T06:21:16.840Z,41.03
2023-03-03T06:23:43.800Z,47.38
2023-03-03T06:26:10.724Z,46.25
2023-03-03T06:28:37.706Z,51.38
2023-03-03T06:31:04.809Z,46.20
2023-03-03T06:33:31.686Z,45.17
2023-03-03T06:35:58.878Z,33.33
2023-03-03T06:38:25.712Z,44.72
2023-03-03T06:40:52.774Z,38.22
2023-03-03T06:43:19.691Z,31.92
2023-03-03T06:45:46.858Z,16.05
2023-03-03T06:48:13.863Z,42.13
2023-03-03T06:50:40.798Z,35.73
2023-03-03T06:53:15.841Z,13.27
2023-03-03T06:55:44.850Z,48.38
2023-03-03T06:58:18.081Z,67.32
2023-03-03T07:00:57.104Z,31.85
2023-03-03T07:03:28.407Z,61.28
2023-03-03T07:05:55.580Z,127.25
2023-03-03T07:08:24.371Z,66.57
2023-03-03T07:10:52.635Z,50.95
2023-03-03T07:13:25.408Z,27.33
2023-03-03T07:15:59.108Z,55.42
2023-03-03T07:18:35.402Z,64.50
2023-03-03T07:21:26.141Z,50.78
2023-03-03T07:23:53.931Z,86.13
2023-03-03T07:26:25.352Z,38.05
2023-03-03T07:29:00.066Z,45.47
2023-03-03T07:31:39.301Z,44.00
2023-03-03T07:34:21.876Z,36.47
2023-03-03T07:36:57.825Z,35.38
2023-03-03T07:39:40.849Z,30.65
2023-03-03T07:42:21.117Z,27.25
2023-03-03T07:44:56.657Z,22.45
2023-03-03T07:47:26.394Z,37.35
2023-03-03T07:49:56.159Z,44.13
2023-03-03T07:52:27.885Z,40.70
2023-03-03T07:54:57.942Z,38.22
2023-03-03T07:57:37.876Z,20.70
2023-03-03T08:00:16.921Z,27.65
2023-03-03T08:03:03.400Z,33.42
2023-03-03T08:05:35.964Z,32.78
2023-03-03T08:08:33.291Z,32.40
2023-03-03T08:11:01.741Z,34.90
2023-03-03T08:13:34.738Z,31.88
2023-03-03T08:16:06.176Z,31.52
2023-03-03T08:18:37.705Z,25.73
2023-03-03T08:21:12.489Z,64.95
2023-03-03T08:23:39.897Z,84.45
2023-03-03T08:26:07.276Z,79.38
2023-03-03T08:28:34.191Z,74.38
2023-03-03T08:31:15.381Z,86.40
2023-03-03T08:33:45.866Z,51.50
2023-03-03T08:36:12.842Z,41.95
2023-03-03T08:38:40.795Z,38.50
2023-03-03T08:41:07.733Z,55.30
2023-03-03T08:43:34.745Z,40.63
2023-03-03T08:46:03.825Z,60.20
2023-03-03T08:48:30.897Z,38.20
2023-03-03T08:50:58.190Z,32.35
2023-03-03T08:53:25.339Z,27.20
2023-03-03T08:55:52.153Z,27.83
2023-03-03T08:58:22.367Z,30.38
2023-03-03T09:00:52.852Z,17.83
2023-03-03T09:03:19.739Z,7.30
2023-03-03T09:05:46.695Z,17.38
2023-03-03T09:08:13.618Z,30.05
2023-03-03T09:10:41.247Z,13.82
2023-03-03T09:13:15.993Z,21.42
2023-03-03T09:15:43.026Z,19.55
2023-03-03T09:18:16.324Z,23.77
2023-03-03T09:20:48.842Z,19.85
2023-03-03T09:23:21.964Z,18.55
2023-03-03T09:25:48.782Z,19.90
2023-03-03T09:28:26.151Z,22.23
2023-03-03T09:30:54.738Z,15.88
2023-03-03T09:33:44.314Z,20.40
2023-03-03T09:36:38.601Z,19.20
2023-03-03T09:39:24.704Z,17.95
2023-03-03T09:42:06.526Z,19.60
2023-03-03T09:45:01.241Z,16.20
2023-03-03T09:47:52.678Z,16.83
2023-03-03T09:50:34.886Z,16.98
2023-03-03T09:53:04.779Z,13.82
2023-03-03T09:55:57.039Z,15.98
2023-03-03T09:58:46.014Z,18.38
2023-03-03T10:01:40.003Z,12.55
2023-03-03T10:04:15.897Z,15.18
2023-03-03T10:06:56.808Z,13.35
2023-03-03T10:09:50.782Z,13.48
2023-03-03T10:12:39.284Z,12.02
2023-03-03T10:15:43.523Z,16.02
2023-03-03T10:18:32.916Z,14.48
2023-03-03T10:21:16.263Z,16.00
2023-03-03T10:24:14.661Z,13.00
2023-03-03T10:27:12.437Z,10.80
2023-03-03T10:29:48.720Z,12.98
2023-03-03T10:32:52.571Z,10.95
2023-03-03T10:35:39.542Z,15.95
2023-03-03T10:38:26.817Z,9.77
2023-03-03T10:41:04.295Z,7.82
2023-03-03T10:44:01.052Z,14.27
2023-03-03T10:46:42.435Z,3.10
2023-03-03T10:49:40.069Z,11.57
2023-03-03T10:52:16.230Z,8.00
2023-03-03T10:54:59.857Z,7.30
2023-03-03T10:58:01.145Z,5.43
2023-03-03T11:00:36.980Z,7.35
2023-03-03T11:03:19.115Z,11.25
2023-03-03T11:05:58.269Z,6.75
2023-03-03T11:08:31.281Z,7.57
2023-03-03T11:11:42.814Z,9.30
2023-03-03T11:14:14.043Z,5.20
2023-03-03T11:17:01.803Z,5.35
2023-03-03T11:19:52.678Z,4.72
2023-03-03T11:22:52.354Z,5.70
2023-03-03T11:25:32.708Z,4.93
2023-03-03T11:28:15.727Z,6.03
2023-03-03T11:30:59.019Z,5.93
2023-03-03T11:33:47.911Z,7.45
2023-03-03T11:36:34.844Z,1.63
2023-03-03T11:39:10.192Z,3.70
2023-03-03T11:41:46.349Z,5.50
2023-03-03T11:44:31.076Z,3.53
2023-03-03T11:47:16.610Z,2.60
2023-03-03T11:50:13.617Z,4.32
2023-03-03T11:52:53.405Z,4.93
2023-03-03T11:55:23.861Z,6.33
2023-03-03T11:58:05.863Z,3.17
2023-03-03T12:00:46.303Z,3.30
2023-03-03T12:03:29.262Z,4.90
2023-03-03T12:06:22.286Z,4.17
2023-03-03T12:09:16.924Z,4.73
2023-03-03T12:11:57.586Z,4.30
2023-03-03T12:14:55.243Z,4.05
2023-03-03T12:17:24.784Z,2.85
2023-03-03T12:20:03.971Z,3.00
2023-03-03T12:22:40.015Z,1.50
2023-03-03T12:25:30.612Z,2.50
2023-03-03T12:28:15.476Z,6.40
2023-03-03T12:31:17.699Z,4.15
2023-03-03T12:33:53.059Z,2.85
2023-03-03T12:36:22.737Z,2.60
2023-03-03T12:39:05.667Z,0.65
2023-03-03T12:41:32.544Z,1.33
2023-03-03T12:44:13.908Z,2.75
2023-03-03T12:47:06.393Z,3.60
2023-03-03T12:50:07.536Z,2.90
2023-03-03T12:52:50.241Z,1.10
2023-03-03T12:55:35.389Z,1.53
2023-03-03T12:58:32.915Z,1.10
2023-03-03T13:01:18.564Z,1.65
2023-03-03T13:04:12.609Z,4.85
2023-03-03T13:06:58.090Z,5.35
2023-03-03T13:09:46.824Z,1.77
2023-03-03T13:12:37.111Z,2.83
2023-03-03T13:15:31.748Z,1.42
2023-03-03T13:18:17.127Z,2.50
2023-03-03T13:21:18.780Z,2.50
2023-03-03T13:24:12.549Z,4.87
2023-03-03T13:26:45.071Z,2.15
2023-03-03T13:29:19.185Z,1.40
2023-03-03T13:32:22.286Z,1.40
2023-03-03T13:34:53.981Z,1.70
2023-03-03T13:37:47.969Z,2.17
2023-03-03T13:40:22.468Z,1.30
2023-03-03T13:43:13.800Z,1.33
2023-03-03T13:45:54.237Z,2.00
2023-03-03T13:48:43.237Z,2.80
2023-03-03T13:51:52.235Z,2.05
2023-03-03T13:54:30.189Z,1.95
2023-03-03T13:57:11.860Z,1.52
2023-03-03T13:59:55.192Z,1.60
2023-03-03T14:02:28.751Z,2.90
2023-03-03T14:05:23.655Z,2.15
2023-03-03T14:08:01.130Z,3.23
2023-03-03T14:11:06.753Z,1.80
2023-03-03T14:14:13.705Z,1.27
2023-03-03T14:17:21.342Z,3.10
2023-03-03T14:20:03.197Z,3.22
2023-03-03T14:22:55.260Z,3.35
2023-03-03T14:25:22.622Z,2.08
2023-03-03T14:27:49.413Z,2.72
2023-03-03T14:30:22.521Z,2.75
2023-03-03T14:33:30.825Z,3.95
2023-03-03T14:35:58.102Z,1.98
2023-03-03T14:38:37.846Z,3.72
2023-03-03T14:41:36.286Z,3.67
2023-03-03T14:44:27.253Z,5.45
2023-03-03T14:47:24.972Z,4.18
2023-03-03T14:49:52.444Z,1.52
2023-03-03T14:52:25.281Z,3.45
2023-03-03T14:54:55.043Z,1.50
2023-03-03T14:57:36.153Z,3.80
2023-03-03T15:00:11.991Z,3.63
2023-03-03T15:02:43.229Z,0.90
2023-03-03T15:05:19.558Z,2.70
2023-03-03T15:07:49.932Z,0.80
2023-03-03T15:10:33.082Z,9.07
2023-03-03T15:13:21.088Z,2.03
2023-03-03T15:16:10.901Z,1.90
2023-03-03T15:19:11.696Z,2.40
2023-03-03T15:21:48.016Z,2.92
2023-03-03T15:24:17.710Z,3.35
2023-03-03T15:26:52.448Z,2.30
2023-03-03T15:29:41.423Z,2.47
2023-03-03T15:32:14.646Z,2.93
2023-03-03T15:34:54.216Z,1.23
2023-03-03T15:37:47.092Z,3.25
2023-03-03T15:40:25.802Z,2.25
2023-03-03T15:42:58.513Z,2.67
2023-03-03T15:45:43.342Z,3.90
2023-03-03T15:48:37.151Z,0.88
2023-03-03T15:51:17.101Z,1.98
2023-03-03T15:54:05.568Z,3.40
2023-03-03T15:56:52.175Z,4.38
2023-03-03T15:59:45.024Z,3.33
2023-03-03T16:02:31.565Z,1.10
2023-03-03T16:05:26.339Z,3.90
2023-03-03T16:08:02.205Z,3.53
2023-03-03T16:10:57.122Z,1.13
2023-03-03T16:13:35.708Z,1.50
2023-03-03T16:17:04.887Z,2.53
2023-03-03T16:19:45.225Z,5.68
2023-03-03T16:22:53.670Z,2.10
2023-03-03T16:25:26.449Z,4.55
2023-03-03T16:28:19.632Z,5.05
2023-03-03T16:31:03.314Z,3.22
2023-03-03T16:33:43.790Z,3.25
2023-03-03T16:36:28.483Z,3.15
2023-03-03T16:39:25.941Z,2.90
2023-03-03T16:42:23.795Z,4.10
2023-03-03T16:45:21.545Z,2.25
2023-03-03T16:47:57.342Z,4.95
2023-03-03T16:51:08.666Z,2.90
2023-03-03T16:53:54.243Z,4.53
2023-03-03T16:56:31.116Z,4.60
2023-03-03T16:59:16.278Z,4.00
2023-03-03T17:02:12.517Z,5.05
2023-03-03T17:05:00.362Z,5.22
2023-03-03T17:07:33.153Z,3.08
2023-03-03T17:10:29.472Z,6.30
2023-03-03T17:13:11.326Z,10.93
2023-03-03T17:15:50.193Z,17.67
2023-03-03T17:18:38.899Z,13.38
2023-03-03T17:21:20.255Z,11.23
2023-03-03T17:23:53.597Z,11.35
2023-03-03T17:26:34.048Z,9.48
2023-03-03T17:29:29.797Z,4.63
2023-03-03T17:32:16.384Z,8.82
2023-03-03T17:35:08.499Z,4.40
2023-03-03T17:37:59.126Z,6.17
2023-03-03T17:40:44.726Z,9.38
2023-03-03T17:43:21.539Z,6.80
2023-03-03T17:45:53.054Z,5.50
2023-03-03T17:48:47.925Z,5.97
2023-03-03T17:51:40.002Z,6.85
2023-03-03T17:54:41.512Z,6.15
2023-03-03T17:57:33.831Z,4.78
2023-03-03T18:00:24.548Z,5.72
2023-03-03T18:03:12.815Z,6.97
2023-03-03T18:05:45.715Z,4.25
2023-03-03T18:08:43.336Z,8.77
2023-03-03T18:11:13.158Z,7.63
2023-03-03T18:14:03.209Z,6.93
2023-03-03T18:17:03.592Z,7.97
2023-03-03T18:19:56.667Z,4.70
2023-03-03T18:22:30.726Z,9.70
2023-03-03T18:25:12.327Z,6.15
2023-03-03T18:27:44.082Z,21.55
2023-03-03T18:30:29.938Z,10.75
2023-03-03T18:32:56.678Z,12.30
2023-03-03T18:35:33.274Z,12.77
2023-03-03T18:38:24.941Z,14.27
2023-03-03T18:40:57.679Z,9.98
2023-03-03T18:43:43.339Z,14.77
2023-03-03T18:46:25.118Z,15.98
2023-03-03T18:48:58.604Z,13.10
2023-03-03T18:51:34.526Z,14.90
2023-03-03T18:54:12.977Z,15.35
2023-03-03T18:56:50.222Z,15.90
2023-03-03T18:59:34.987Z,18.25
2023-03-03T19:02:13.759Z,15.55
2023-03-03T19:04:44.728Z,12.95
2023-03-03T19:07:30.075Z,15.57
2023-03-03T19:09:58.862Z,15.55
2023-03-03T19:12:45.403Z,20.20
2023-03-03T19:15:31.216Z,15.82
2023-03-03T19:18:17.840Z,16.23
2023-03-03T19:20:49.039Z,14.95
2023-03-03T19:23:19.159Z,11.85
2023-03-03T19:25:46.200Z,13.80
2023-03-03T19:28:38.728Z,14.00
2023-03-03T19:31:33.463Z,12.00
2023-03-03T19:34:32.274Z,24.00
2023-03-03T19:37:32.266Z,18.38
2023-03-03T19:40:11.147Z,16.65
2023-03-03T19:42:51.566Z,19.83
2023-03-03T19:45:22.041Z,15.25
2023-03-03T19:47:53.728Z,14.48
2023-03-03T19:50:49.109Z,16.25
2023-03-03T19:53:33.663Z,13.75
2023-03-03T19:56:13.414Z,12.35
2023-03-03T19:59:17.667Z,12.18
2023-03-03T20:01:59.619Z,13.05
2023-03-03T20:04:53.281Z,14.40
2023-03-03T20:07:31.383Z,10.20
2023-03-03T20:10:16.404Z,19.10
2023-03-03T20:12:53.870Z,20.10
2023-03-03T20:15:38.904Z,19.17
2023-03-03T20:18:26.155Z,15.43
2023-03-03T20:21:07.505Z,12.30
2023-03-03T20:23:49.894Z,16.05
2023-03-03T20:26:21.438Z,15.73
2023-03-03T20:29:29.003Z,17.67
2023-03-03T20:32:14.501Z,21.50
2023-03-03T20:35:02.605Z,18.00
2023-03-03T20:37:54.326Z,18.92
2023-03-03T20:40:48.985Z,20.48
2023-03-03T20:43:21.742Z,16.70
2023-03-03T20:46:07.355Z,14.48
2023-03-03T20:48:34.125Z,15.13
2023-03-03T20:51:28.533Z,13.82
2023-03-03T20:54:07.248Z,21.92
2023-03-03T20:56:48.072Z,16.05
2023-03-03T20:59:40.551Z,15.70
2023-03-03T21:02:40.170Z,21.70
2023-03-03T21:05:13.207Z,24.30
2023-03-03T21:07:58.106Z,16.88
2023-03-03T21:10:29.203Z,17.77
2023-03-03T21:12:58.220Z,18.17
2023-03-03T21:15:35.626Z,20.50
2023-03-03T21:18:24.153Z,14.80
2023-03-03T21:20:51.692Z,17.10
2023-03-03T21:23:20.959Z,21.70
2023-03-03T21:25:52.162Z,20.33
2023-03-03T21:28:31.915Z,21.30
2023-03-03T21:31:02.778Z,21.90
2023-03-03T21:33:58.082Z,20.20
2023-03-03T21:36:36.813Z,13.75
2023-03-03T21:39:21.705Z,19.13
2023-03-03T21:42:06.508Z,16.50
2023-03-03T21:44:38.278Z,24.13
2023-03-03T21:47:10.574Z,15.10
2023-03-03T21:49:41.538Z,23.97
2023-03-03T21:52:09.153Z,21.40
2023-03-03T21:54:36.131Z,23.65
2023-03-03T21:57:03.455Z,21.50
2023-03-03T21:59:30.507Z,16.13
2023-03-03T22:01:57.405Z,18.52
2023-03-03T22:04:24.276Z,23.25
2023-03-03T22:06:52.715Z,17.95
2023-03-03T22:09:19.950Z,16.35
2023-03-03T22:11:46.842Z,20.08
2023-03-03T22:14:14.061Z,17.05
2023-03-03T22:16:40.935Z,16.47
2023-03-03T22:19:11.165Z,19.65
2023-03-03T22:21:39.566Z,15.35
2023-03-03T22:24:07.068Z,14.65
2023-03-03T22:26:34.555Z,18.35
2023-03-03T22:29:01.725Z,10.93
2023-03-03T22:31:28.653Z,22.00
2023-03-03T22:33:55.612Z,18.23
2023-03-03T22:36:22.802Z,17.30
2023-03-03T22:38:49.714Z,18.63
2023-03-03T22:41:17.306Z,15.65
2023-03-03T22:43:44.223Z,19.05
2023-03-03T22:46:11.833Z,13.20
2023-03-03T22:48:38.980Z,19.25
2023-03-03T22:51:06.349Z,20.40
2023-03-03T22:53:33.132Z,15.60
2023-03-03T22:55:59.993Z,15.65
2023-03-03T22:58:26.972Z,13.70
2023-03-03T23:00:54.429Z,16.02
2023-03-03T23:03:21.636Z,20.42
2023-03-03T23:05:51.584Z,16.48
2023-03-03T23:08:20.334Z,18.93
2023-03-03T23:10:48.261Z,23.38
2023-03-03T23:13:15.239Z,17.15
2023-03-03T23:15:42.144Z,16.38
2023-03-03T23:18:09.133Z,20.27
2023-03-03T23:20:36.478Z,18.00
2023-03-03T23:23:03.812Z,13.90
2023-03-03T23:25:30.834Z,16.25
2023-03-03T23:27:58.009Z,18.50
2023-03-03T23:30:25.266Z,14.63
2023-03-03T23:32:52.712Z,13.45
2023-03-03T23:35:20.473Z,17.35
2023-03-03T23:37:47.408Z,16.77
2023-03-03T23:40:16.222Z,16.58
2023-03-03T23:42:43.405Z,15.18
2023-03-03T23:45:11.605Z,12.25
2023-03-03T23:47:38.597Z,16.13
2023-03-03T23:50:05.940Z,13.60
2023-03-03T23:52:32.824Z,24.30
2023-03-03T23:54:59.772Z,15.10
2023-03-03T23:57:26.588Z,18.20
2023-03-03T23:59:53.418Z,13.65
